createdAt,value
2023-02-06T00:00:43.819Z,102427.81
2023-02-06T00:03:45.965Z,102451.31
2023-02-06T00:06:48.333Z,102445.69
2023-02-06T00:09:50.240Z,102430.19
2023-02-06T00:12:52.463Z,102434.38
2023-02-06T00:15:54.823Z,102442.44
2023-02-06T00:18:58.247Z,102449.97
2023-02-06T00:22:00.249Z,102429.06
2023-02-06T00:25:02.601Z,102426.44
2023-02-06T00:28:05.262Z,102433.34
2023-02-06T00:31:08.807Z,102431.94
2023-02-06T00:34:10.871Z,102440.41
2023-02-06T00:37:15.113Z,102415.59
2023-02-06T00:40:18.169Z,102426.59
2023-02-06T00:43:20.699Z,102441.44
2023-02-06T00:46:23.033Z,102427.88
2023-02-06T00:49:25.554Z,102423.03
2023-02-06T00:52:27.988Z,102425.41
2023-02-06T00:55:31.200Z,102419.84
2023-02-06T00:58:33.297Z,102418.09
2023-02-06T01:01:35.510Z,102409.50
2023-02-06T01:04:37.709Z,102423.94
2023-02-06T01:07:42.669Z,102417.28
2023-02-06T01:10:45.989Z,102409.97
2023-02-06T01:13:48.116Z,102411.56
2023-02-06T01:16:51.546Z,102410.28
2023-02-06T01:19:54.222Z,102429.97
2023-02-06T01:22:56.249Z,102414.47
2023-02-06T01:25:58.282Z,102412.69
2023-02-06T01:29:02.167Z,102421.31
2023-02-06T01:32:04.335Z,102427.38
2023-02-06T01:35:08.505Z,102424.63
2023-02-06T01:38:10.582Z,102434.28
2023-02-06T01:41:13.604Z,102438.06
2023-02-06T01:44:23.427Z,102432.66
2023-02-06T01:47:25.577Z,102425.47
2023-02-06T01:50:33.426Z,102424.19
2023-02-06T01:53:36.236Z,102439.78
2023-02-06T01:56:55.321Z,102433.72
2023-02-06T02:00:01.764Z,102439.28
2023-02-06T02:03:13.945Z,102421.63
2023-02-06T02:06:20.987Z,102434.31
2023-02-06T02:09:23.872Z,102438.63
2023-02-06T02:12:26.342Z,102433.38
2023-02-06T02:15:41.871Z,102436.38
2023-02-06T02:19:13.989Z,102432.13
2023-02-06T02:22:40.066Z,102444.59
2023-02-06T02:25:47.722Z,102442.97
2023-02-06T02:29:08.580Z,102449.34
2023-02-06T02:32:28.536Z,102462.84
2023-02-06T02:35:38.036Z,102461.50
2023-02-06T02:38:54.551Z,102459.03
2023-02-06T02:41:58.542Z,102457.78
2023-02-06T02:45:12.366Z,102470.78
2023-02-06T02:48:18.944Z,102477.56
2023-02-06T02:51:23.818Z,102472.44
2023-02-06T02:54:26.613Z,102489.16
2023-02-06T02:57:31.938Z,102499.97
2023-02-06T03:00:43.493Z,102487.84
2023-02-06T03:03:48.522Z,102488.50
2023-02-06T03:07:09.011Z,102497.97
2023-02-06T03:10:30.357Z,102500.19
2023-02-06T03:13:39.475Z,102486.94
2023-02-06T03:16:59.676Z,102496.16
2023-02-06T03:20:04.796Z,102500.16
2023-02-06T03:23:08.836Z,102497.38
2023-02-06T03:26:15.853Z,102500.13
2023-02-06T03:29:19.330Z,102501.84
2023-02-06T03:32:34.633Z,102514.09
2023-02-06T03:35:38.653Z,102500.66
2023-02-06T03:38:40.949Z,102508.47
2023-02-06T03:41:44.545Z,102509.44
2023-02-06T03:44:54.337Z,102520.50
2023-02-06T03:48:00.918Z,102501.34
2023-02-06T03:51:09.593Z,102508.38
2023-02-06T03:54:14.418Z,102520.00
2023-02-06T03:57:19.533Z,102527.03
2023-02-06T04:00:21.959Z,102509.94
2023-02-06T04:03:24.640Z,102512.28
2023-02-06T04:06:26.694Z,102524.47
2023-02-06T04:09:28.871Z,102535.50
2023-02-06T04:12:31.568Z,102533.81
2023-02-06T04:15:33.898Z,102523.22
2023-02-06T04:18:35.988Z,102535.38
2023-02-06T04:21:38.207Z,102546.53
2023-02-06T04:24:41.580Z,102539.59
2023-02-06T04:27:43.683Z,102542.03
2023-02-06T04:30:48.905Z,102533.34
2023-02-06T04:33:51.501Z,102553.97
2023-02-06T04:36:53.504Z,102551.09
2023-02-06T04:39:55.663Z,102550.47
2023-02-06T04:42:57.813Z,102560.28
2023-02-06T04:46:00.391Z,102566.78
2023-02-06T04:49:02.421Z,102561.81
2023-02-06T04:52:04.634Z,102569.59
2023-02-06T04:55:07.119Z,102586.09
2023-02-06T04:58:09.580Z,102593.31
2023-02-06T05:01:11.759Z,102595.78
2023-02-06T05:04:13.787Z,102587.88
2023-02-06T05:07:15.903Z,102614.56
2023-02-06T05:10:18.063Z,102611.63
2023-02-06T05:13:20.332Z,102616.44
2023-02-06T05:16:22.736Z,102613.22
2023-02-06T05:19:24.937Z,102622.84
2023-02-06T05:22:27.188Z,102635.59
2023-02-06T05:25:30.002Z,102614.44
2023-02-06T05:28:33.664Z,102614.16
2023-02-06T05:31:36.443Z,102617.28
2023-02-06T05:34:38.631Z,102640.91
2023-02-06T05:37:40.900Z,102645.22
2023-02-06T05:40:42.993Z,102619.03
2023-02-06T05:43:45.109Z,102649.66
2023-02-06T05:46:48.632Z,102660.53
2023-02-06T05:49:50.621Z,102647.88
2023-02-06T05:52:52.745Z,102646.84
2023-02-06T05:55:54.951Z,102671.84
2023-02-06T05:58:57.079Z,102671.13
2023-02-06T06:01:59.193Z,102676.53
2023-02-06T06:05:01.388Z,102669.75
2023-02-06T06:08:03.657Z,102668.25
2023-02-06T06:11:05.917Z,102675.59
2023-02-06T06:14:08.110Z,102668.44
2023-02-06T06:17:10.186Z,102671.19
2023-02-06T06:20:12.315Z,102673.88
2023-02-06T06:23:14.700Z,102686.84
2023-02-06T06:26:16.938Z,102678.28
2023-02-06T06:29:19.079Z,102668.44
2023-02-06T06:32:21.065Z,102670.75
2023-02-06T06:35:23.109Z,102685.44
2023-02-06T06:38:25.441Z,102681.28
2023-02-06T06:41:27.560Z,102671.44
2023-02-06T06:44:29.644Z,102670.44
2023-02-06T06:47:31.758Z,102682.06
2023-02-06T06:50:33.903Z,102676.44
2023-02-06T06:53:40.205Z,102693.94
2023-02-06T06:56:42.606Z,102694.47
2023-02-06T06:59:44.927Z,102696.47
2023-02-06T07:02:47.513Z,102703.22
2023-02-06T07:05:55.299Z,102689.44
2023-02-06T07:08:57.523Z,102708.28
2023-02-06T07:12:01.999Z,102697.94
2023-02-06T07:15:05.095Z,102703.09
2023-02-06T07:18:07.097Z,102714.78
2023-02-06T07:21:10.570Z,102704.06
2023-02-06T07:24:12.618Z,102717.97
2023-02-06T07:27:15.003Z,102707.81
2023-02-06T07:30:17.475Z,102720.06
2023-02-06T07:33:19.572Z,102712.66
2023-02-06T07:36:21.656Z,102717.41
2023-02-06T07:39:23.764Z,102713.78
2023-02-06T07:42:25.869Z,102724.63
2023-02-06T07:45:33.281Z,102732.59
2023-02-06T07:48:35.361Z,102721.47
2023-02-06T07:51:37.604Z,102730.22
2023-02-06T07:54:39.658Z,102711.53
2023-02-06T07:57:42.771Z,102721.66
2023-02-06T08:00:45.976Z,102717.38
2023-02-06T08:03:52.143Z,102738.63
2023-02-06T08:06:54.123Z,102731.38
2023-02-06T08:09:56.159Z,102743.91
2023-02-06T08:12:58.130Z,102740.28
2023-02-06T08:16:07.201Z,102743.63
2023-02-06T08:19:11.140Z,102737.06
2023-02-06T08:22:13.196Z,102734.47
2023-02-06T08:25:15.537Z,102733.91
2023-02-06T08:28:17.817Z,102733.34
2023-02-06T08:31:25.872Z,102729.31
2023-02-06T08:34:28.436Z,102744.25
2023-02-06T08:37:32.026Z,102748.09
2023-02-06T08:40:34.217Z,102753.16
2023-02-06T08:43:36.226Z,102757.91
2023-02-06T08:46:40.246Z,102760.66
2023-02-06T08:49:42.266Z,102753.53
2023-02-06T08:52:44.352Z,102760.16
2023-02-06T08:55:46.483Z,102757.63
2023-02-06T08:58:48.598Z,102770.28
2023-02-06T09:01:52.269Z,102761.94
2023-02-06T09:04:54.536Z,102755.31
2023-02-06T09:07:56.770Z,102746.69
2023-02-06T09:11:06.865Z,102742.75
2023-02-06T09:14:13.077Z,102763.28
2023-02-06T09:17:15.182Z,102748.00
2023-02-06T09:20:17.500Z,102748.78
2023-02-06T09:23:19.916Z,102747.16
2023-02-06T09:26:27.654Z,102738.78
2023-02-06T09:29:34.062Z,102741.09
2023-02-06T09:32:38.070Z,102743.50
2023-02-06T09:35:40.075Z,102731.53
2023-02-06T09:38:46.625Z,102733.47
2023-02-06T09:41:54.630Z,102722.34
2023-02-06T09:45:28.352Z,102711.47
2023-02-06T09:48:35.091Z,102704.53
2023-02-06T09:51:55.331Z,102715.81
2023-02-06T09:55:16.389Z,102706.50
2023-02-06T09:59:09.536Z,102727.78
2023-02-06T10:02:17.242Z,102739.06
2023-02-06T10:05:25.074Z,102740.56
2023-02-06T10:08:39.243Z,102727.91
2023-02-06T10:11:54.912Z,102738.16
2023-02-06T10:15:11.340Z,102736.09
2023-02-06T10:18:43.988Z,102716.41
2023-02-06T10:21:55.596Z,102712.31
2023-02-06T10:25:13.540Z,102722.13
2023-02-06T10:28:20.921Z,102722.50
2023-02-06T10:31:26.131Z,102725.88
2023-02-06T10:34:40.337Z,102736.38
2023-02-06T10:37:57.208Z,102737.66
2023-02-06T10:41:10.143Z,102739.13
2023-02-06T10:44:28.189Z,102736.03
2023-02-06T10:47:41.499Z,102725.16
2023-02-06T10:50:59.968Z,102739.34
2023-02-06T10:54:04.933Z,102733.69
2023-02-06T10:57:17.558Z,102755.75
2023-02-06T11:00:28.239Z,102756.47
2023-02-06T11:03:32.332Z,102769.44
2023-02-06T11:06:34.681Z,102744.06
2023-02-06T11:09:37.007Z,102737.38
2023-02-06T11:12:44.540Z,102751.41
2023-02-06T11:16:02.410Z,102746.41
2023-02-06T11:19:32.422Z,102746.25
2023-02-06T11:22:41.599Z,102755.47
2023-02-06T11:26:20.158Z,102749.34
2023-02-06T11:29:26.699Z,102753.22
2023-02-06T11:32:43.920Z,102748.22
2023-02-06T11:36:00.040Z,102748.50
2023-02-06T11:39:07.054Z,102739.72
2023-02-06T11:42:22.380Z,102735.81
2023-02-06T11:45:32.079Z,102734.56
2023-02-06T11:48:40.522Z,102706.94
2023-02-06T11:51:54.519Z,102691.47
2023-02-06T11:55:01.878Z,102722.81
2023-02-06T11:58:13.024Z,102739.97
2023-02-06T12:01:21.302Z,102733.88
2023-02-06T12:04:39.064Z,102747.34
2023-02-06T12:07:43.587Z,102753.59
2023-02-06T12:11:03.176Z,102748.03
2023-02-06T12:14:11.480Z,102740.09
2023-02-06T12:17:40.034Z,102755.13
2023-02-06T12:21:05.662Z,102728.13
2023-02-06T12:24:28.869Z,102749.22
2023-02-06T12:27:39.024Z,102735.41
2023-02-06T12:31:01.110Z,102738.84
2023-02-06T12:34:14.889Z,102739.50
2023-02-06T12:37:46.808Z,102744.63
2023-02-06T12:41:00.343Z,102740.22
2023-02-06T12:44:44.312Z,102744.25
2023-02-06T12:47:54.785Z,102751.75
2023-02-06T12:51:10.876Z,102756.88
2023-02-06T12:54:19.884Z,102751.38
2023-02-06T12:57:23.791Z,102749.59
2023-02-06T13:00:46.475Z,102773.84
2023-02-06T13:03:56.527Z,102771.69
2023-02-06T13:07:07.339Z,102765.69
2023-02-06T13:10:21.825Z,102763.38
2023-02-06T13:13:26.470Z,102747.69
2023-02-06T13:16:49.156Z,102757.44
2023-02-06T13:20:19.493Z,102748.06
2023-02-06T13:23:37.066Z,102757.53
2023-02-06T13:31:31.747Z,102754.22
2023-02-06T13:34:53.068Z,102757.28
2023-02-06T13:38:48.404Z,102755.72
2023-02-06T13:42:50.287Z,102757.44
2023-02-06T13:45:57.798Z,102751.94
2023-02-06T13:49:14.973Z,102768.84
2023-02-06T13:52:24.669Z,102777.19
2023-02-06T13:55:44.058Z,102781.03
2023-02-06T13:58:52.672Z,102780.22
2023-02-06T14:01:56.008Z,102760.78
2023-02-06T14:04:59.057Z,102766.97
2023-02-06T14:08:23.244Z,102773.47
2023-02-06T14:12:03.278Z,102778.75
2023-02-06T14:15:20.524Z,102789.00
2023-02-06T14:18:22.515Z,102787.94
2023-02-06T14:21:39.521Z,102781.97
2023-02-06T14:25:04.275Z,102779.66
2023-02-06T14:28:08.952Z,102793.59
2023-02-06T14:31:48.879Z,102792.25
2023-02-06T14:35:16.825Z,102792.66
2023-02-06T14:38:33.630Z,102788.66
2023-02-06T14:41:39.603Z,102807.19
2023-02-06T14:44:43.423Z,102777.63
2023-02-06T14:47:46.772Z,102800.59
2023-02-06T14:50:56.670Z,102797.38
2023-02-06T14:54:07.663Z,102797.13
2023-02-06T14:57:35.890Z,102799.91
2023-02-06T15:00:38.210Z,102793.06
2023-02-06T15:03:41.989Z,102802.63
2023-02-06T15:07:05.083Z,102810.97
2023-02-06T15:10:11.980Z,102814.44
2023-02-06T15:13:25.319Z,102809.19
2023-02-06T15:16:44.670Z,102815.75
2023-02-06T15:19:47.043Z,102824.47
2023-02-06T15:22:49.740Z,102825.03
2023-02-06T15:26:04.420Z,102826.31
2023-02-06T15:29:19.792Z,102833.34
2023-02-06T15:32:24.434Z,102839.69
2023-02-06T15:35:39.127Z,102855.53
2023-02-06T15:38:43.356Z,102850.69
2023-02-06T15:41:48.242Z,102851.94
2023-02-06T15:44:51.222Z,102854.41
2023-02-06T15:47:55.106Z,102868.78
2023-02-06T15:51:02.034Z,102867.19
2023-02-06T15:54:15.998Z,102887.44
2023-02-06T15:57:29.550Z,102895.94
2023-02-06T16:00:34.997Z,102887.16
2023-02-06T16:03:41.782Z,102902.16
2023-02-06T16:06:45.769Z,102887.31
2023-02-06T16:09:53.781Z,102901.16
2023-02-06T16:13:00.192Z,102886.97
2023-02-06T16:16:28.326Z,102875.19
2023-02-06T16:19:48.558Z,102874.16
2023-02-06T16:22:54.070Z,102883.22
2023-02-06T16:26:12.974Z,102901.16
2023-02-06T16:29:21.144Z,102901.75
2023-02-06T16:32:30.081Z,102916.13
2023-02-06T16:35:32.318Z,102938.22
2023-02-06T16:38:34.473Z,102938.00
2023-02-06T16:41:39.117Z,102947.97
2023-02-06T16:44:45.371Z,102930.69
2023-02-06T16:47:48.559Z,102942.97
2023-02-06T16:50:50.626Z,102942.88
2023-02-06T16:53:53.309Z,102951.44
2023-02-06T16:57:00.533Z,102938.94
2023-02-06T17:00:05.729Z,102950.41
2023-02-06T17:03:07.875Z,102947.53
2023-02-06T17:06:18.021Z,102953.22
2023-02-06T17:09:20.142Z,102957.75
2023-02-06T17:12:23.072Z,102936.72
2023-02-06T17:15:25.286Z,102960.00
2023-02-06T17:18:28.752Z,102964.75
2023-02-06T17:21:33.314Z,102959.63
2023-02-06T17:24:36.465Z,102963.81
2023-02-06T17:27:40.345Z,102944.69
2023-02-06T17:30:43.165Z,102956.34
2023-02-06T17:33:46.010Z,102948.59
2023-02-06T17:36:55.948Z,102965.53
2023-02-06T17:40:10.325Z,102963.13
2023-02-06T17:43:16.239Z,102953.53
2023-02-06T17:46:18.451Z,102953.84
2023-02-06T17:49:31.019Z,102952.88
2023-02-06T17:52:33.256Z,102952.84
2023-02-06T17:55:44.083Z,102954.88
2023-02-06T17:58:46.206Z,102955.03
2023-02-06T18:01:48.328Z,102946.94
2023-02-06T18:04:53.043Z,102955.53
2023-02-06T18:07:55.280Z,102927.44
2023-02-06T18:10:58.848Z,102936.97
2023-02-06T18:14:00.990Z,102943.75
2023-02-06T18:17:03.961Z,102952.38
2023-02-06T18:20:07.262Z,102936.44
2023-02-06T18:23:09.617Z,102950.03
2023-02-06T18:26:12.089Z,102935.13
2023-02-06T18:29:21.430Z,102952.72
2023-02-06T18:32:25.429Z,102953.94
2023-02-06T18:35:28.400Z,102958.69
2023-02-06T18:38:37.219Z,102951.06
2023-02-06T18:41:57.992Z,102947.16
2023-02-06T18:45:04.184Z,102956.97
2023-02-06T18:48:10.421Z,102957.53
2023-02-06T18:51:12.479Z,102965.84
2023-02-06T18:54:15.781Z,102959.72
2023-02-06T18:57:17.972Z,102961.16
2023-02-06T19:00:22.373Z,102968.25
2023-02-06T19:03:31.996Z,102973.50
2023-02-06T19:06:39.425Z,102961.25
2023-02-06T19:09:45.562Z,102972.94
2023-02-06T19:12:47.818Z,102971.75
2023-02-06T19:15:50.496Z,102970.56
2023-02-06T19:18:52.804Z,102961.09
2023-02-06T19:21:56.446Z,102980.88
2023-02-06T19:24:58.608Z,102980.88
2023-02-06T19:28:05.195Z,102991.34
2023-02-06T19:31:08.949Z,102998.31
2023-02-06T19:34:11.428Z,102996.19
2023-02-06T19:37:14.118Z,103014.22
2023-02-06T19:40:16.685Z,103016.38
2023-02-06T19:43:18.911Z,103000.16
2023-02-06T19:46:23.794Z,103003.31
2023-02-06T19:49:27.107Z,103013.16
2023-02-06T19:52:29.236Z,103008.03
2023-02-06T19:55:31.816Z,102984.09
2023-02-06T19:58:34.402Z,102988.50
2023-02-06T20:01:36.642Z,103000.75
2023-02-06T20:04:40.204Z,102991.94
2023-02-06T20:07:49.726Z,102993.41
2023-02-06T20:10:55.685Z,102997.91
2023-02-06T20:14:01.107Z,102989.22
2023-02-06T20:17:05.194Z,103000.81
2023-02-06T20:20:11.615Z,103002.50
2023-02-06T20:23:13.611Z,102988.84
2023-02-06T20:26:20.025Z,102990.16
2023-02-06T20:29:26.771Z,102987.25
2023-02-06T20:32:30.056Z,102979.91
2023-02-06T20:35:32.601Z,102989.16
2023-02-06T20:38:34.850Z,102980.75
2023-02-06T20:41:39.367Z,102977.50
2023-02-06T20:44:44.166Z,102987.78
2023-02-06T20:47:49.535Z,102996.78
2023-02-06T20:51:03.602Z,102977.03
2023-02-06T20:54:06.759Z,102971.66
2023-02-06T20:57:11.294Z,102996.88
2023-02-06T21:00:14.906Z,102981.38
2023-02-06T21:03:20.259Z,102990.56
2023-02-06T21:06:26.889Z,102978.19
2023-02-06T21:09:29.205Z,102988.56
2023-02-06T21:12:32.397Z,102981.44
2023-02-06T21:15:34.640Z,102985.47
2023-02-06T21:18:37.969Z,102990.13
2023-02-06T21:21:41.050Z,102983.47
2023-02-06T21:24:47.336Z,102983.94
2023-02-06T21:27:49.989Z,102997.34
2023-02-06T21:31:00.249Z,103009.72
2023-02-06T21:34:18.257Z,103009.31
2023-02-06T21:37:23.131Z,103005.31
2023-02-06T21:40:27.804Z,103004.91
2023-02-06T21:43:29.882Z,102991.84
2023-02-06T21:46:32.508Z,102990.16
2023-02-06T21:49:34.918Z,103004.97
2023-02-06T21:52:39.081Z,103004.56
2023-02-06T21:55:43.292Z,103010.59
2023-02-06T21:58:45.881Z,103007.19
2023-02-06T22:01:48.038Z,103017.81
2023-02-06T22:04:50.200Z,102987.06
2023-02-06T22:07:54.314Z,102990.78
2023-02-06T22:10:56.332Z,103001.00
2023-02-06T22:14:06.395Z,103017.69
2023-02-06T22:17:08.783Z,102990.88
2023-02-06T22:20:11.423Z,103001.19
2023-02-06T22:23:13.796Z,103015.09
2023-02-06T22:26:18.612Z,102994.00
2023-02-06T22:29:21.810Z,103009.34
2023-02-06T22:32:24.188Z,103000.84
2023-02-06T22:35:26.878Z,103010.22
2023-02-06T22:38:28.977Z,103012.16
2023-02-06T22:41:31.429Z,103016.47
2023-02-06T22:44:33.919Z,103004.56
2023-02-06T22:47:36.448Z,103014.22
2023-02-06T22:50:39.697Z,103017.69
2023-02-06T22:53:42.506Z,103021.78
2023-02-06T22:56:45.589Z,103022.75
2023-02-06T22:59:47.810Z,103027.22
2023-02-06T23:02:50.316Z,103021.63
2023-02-06T23:05:52.626Z,103020.59
2023-02-06T23:08:57.332Z,103011.03
2023-02-06T23:12:07.343Z,103013.59
2023-02-06T23:15:12.216Z,103018.41
2023-02-06T23:18:14.478Z,103013.63
2023-02-06T23:21:19.464Z,103000.72
2023-02-06T23:24:21.934Z,102995.16
2023-02-06T23:27:25.799Z,102991.63
2023-02-06T23:30:31.146Z,102998.75
2023-02-06T23:33:35.731Z,102997.91
2023-02-06T23:36:38.208Z,103000.91
2023-02-06T23:39:42.781Z,102988.00
2023-02-06T23:42:45.536Z,102983.59
2023-02-06T23:45:48.312Z,102994.31
2023-02-06T23:48:51.606Z,103010.47
2023-02-06T23:51:53.743Z,103005.88
2023-02-06T23:54:57.189Z,103007.75
2023-02-06T23:57:59.375Z,103007.88
